Abbott Park, Illinois
Current Conditions -  °F | °C
As of 6:55 PM on Wednesday 22 Oct 2014 (Local Time) from KUGN Reporting Station
Clear Clear  
Wind Chill: 40°   Ceiling: Unl
Heat Index: 43°   Visibility: 10mi
Dew Point: 37°   Wind: 5mph
Humidity: 80%   Direction: 100°E
Pressure: 30.27"   Gusts: NA
Location:  42.3271°N, 87.865°W
Report Text: KUGN 222355Z 10004KT 10SM CLR 06/03 A3027 RMK AO2 SLP260 T00610028 10111 20061 56010
Loading
Personal Weather Stations






























Interactive Weather Map
Tropical Storm Tracking
New forecast layout! Learn more

10-Day Weather Forecast

Advertisements
Track Severe Weather on mobile